Nearby METAR Reports

 

EGMC - Southend-On-Sea, United Kingdom
Distance from station: NE 10km
Updated: 18/04/2021 14:20
Clear
Clear
 Wind from varies
Wind: varies 6 mph , 9 km/h
Temperature: 13°C
Dew Point: -2°C
Humidity: 36%
Barometer: 1024 hPa
Summary: Clear
Visibility: greater than 7 miles , 10 km
2021/04/18 13:20 EGMC 181320Z VRB05KT CAVOK 13/M02 Q1024
EGLC - London City Airp, United Kingdom
Distance from station: W 37km
Updated: 18/04/2021 14:20
Clear
Clear
 Wind from varies
Wind: varies 7 mph , 11 km/h, Gust: 18 mph , 30 km/h
Temperature: 14°C
Dew Point: -3°C
Humidity: 31%
Barometer: 1024 hPa
Clouds: Clear
Visibility: 6 miles , 10 km
2021/04/18 13:20 EGLC 181320Z AUTO VRB06G16KT 9999 NCD 14/M03 Q1024
EGKB - Biggin Hill, United Kingdom
Distance from station: WSW 45km
Updated: 18/04/2021 14:20
Clear
Clear
 Wind from varies
Wind: varies 5 mph , 7 km/h
Temperature: 12°C
Dew Point: -4°C
Humidity: 33%
Barometer: 1024 hPa
Summary: Clear
Visibility: greater than 7 miles , 10 km
2021/04/18 13:20 EGKB 181320Z VRB04KT CAVOK 12/M04 Q1024
 
EGSS - Stansted Airport, United Kingdom
Distance from station: NNW 48km
Updated: 18/04/2021 14:20
Clear
Clear
 Wind from varies
Wind: varies 5 mph , 7 km/h
Temperature: 13°C
Dew Point: -1°C
Humidity: 38%
Barometer: 1024 hPa
Clouds: Clear
Visibility: 6 miles , 10 km
2021/04/18 13:20 EGSS 181320Z AUTO VRB04KT 9999 NCD 13/M01 Q1024
EGKK - London/Gatwick A, United Kingdom
Distance from station: SW 67km
Updated: 18/04/2021 14:20
Clear
Clear
 Wind from NNW
Wind: NNW 6 mph , 9 km/h
Temperature: 14°C
Dew Point: -4°C
Humidity: 29%
Barometer: 1024 hPa
Summary: Clear
Visibility: greater than 7 miles , 10 km
2021/04/18 13:20 EGKK 181320Z 33005KT 260V030 CAVOK 14/M04 Q1024
EGMD - Lydd Airport, United Kingdom
Distance from station: SSE 67km
Updated: 18/04/2021 14:20
Clear
Clear
 Wind from SE
Wind: SE 10 mph , 17 km/h
Temperature: 11°C
Dew Point: 4°C
Humidity: 62%
Barometer: 1024 hPa
Clouds: Clear
Visibility: 6 miles , 10 km
2021/04/18 13:20 EGMD 181320Z AUTO 13009KT 9999 NCD 11/04 Q1024
 
EGWU - Northolt Raf, United Kingdom
Distance from station: W 69km
Updated: 18/04/2021 14:20
Clear
Clear
 Wind from SE
Wind: SE 3 mph , 6 km/h
Temperature: 14°C
Dew Point: -5°C
Humidity: 27%
Barometer: 1024 hPa
Summary: Clear
Visibility: greater than 7 miles , 10 km
2021/04/18 13:20 EGWU 181320Z 13003KT CAVOK 14/M05 Q1024 NOSIG
EGLL - London/Heathrow, United Kingdom
Distance from station: W 72km
Updated: 18/04/2021 14:20
Clear
Clear
 Wind from varies
Wind: varies 6 mph , 9 km/h
Temperature: 13°C
Dew Point: -5°C
Humidity: 28%
Barometer: 1024 hPa
Clouds: Clear
Visibility: 6 miles , 10 km
2021/04/18 13:20 EGLL 181320Z AUTO VRB05KT 9999 NCD 13/M05 Q1024 NOSIG
EGUW - Wattisham Raf, United Kingdom
Distance from station: NNE 72km
Updated: 18/04/2021 13:50
Clear
Clear
 Wind from NNE
Wind: NNE 8 mph , 13 km/h
Temperature: 13°C
Dew Point: 2°C
Humidity: 47%
Barometer: 1024 hPa
Clouds: Clear
Visibility: 6 miles , 10 km
2021/04/18 12:50 EGUW 181250Z AUTO 02007KT 9999 // NCD 13/02 Q1024
 
EGGW - Luton Airport, United Kingdom
Distance from station: WNW 76km
Updated: 18/04/2021 14:20
Clear
Clear
 Wind from NNE
Wind: NNE 7 mph , 11 km/h
Temperature: 13°C
Dew Point: -4°C
Humidity: 31%
Barometer: 1024 hPa
Clouds: Clear
Visibility: 6 miles , 10 km
2021/04/18 13:20 EGGW 181320Z AUTO 02006KT 330V150 9999 NCD 13/M04 Q1024
EGSC - Cambridge, United Kingdom
Distance from station: NNW 81km
Updated: 16/04/2021 17:50
NOT Current
Clear
Clear
 Wind from NNE
Wind: NNE 8 mph , 13 km/h
Temperature: 11°C
Dew Point: -2°C
Humidity: 41%
Barometer: 1029 hPa
Summary: Clear
Visibility: greater than 7 miles , 10 km
2021/04/16 16:50 EGSC 161650Z 03007KT 350V060 CAVOK 11/M02 Q1029